createdAt,value
2022-08-18T00:00:39.741Z,2.30
2022-08-18T00:01:39.831Z,2.50
2022-08-18T00:02:39.974Z,2.60
2022-08-18T00:03:55.734Z,3.10
2022-08-18T00:04:48.715Z,2.80
2022-08-18T00:05:39.813Z,2.60
2022-08-18T00:06:39.828Z,2.20
2022-08-18T00:07:39.842Z,2.80
2022-08-18T00:08:39.921Z,2.80
2022-08-18T00:09:39.874Z,2.70
2022-08-18T00:10:39.890Z,2.70
2022-08-18T00:11:41.493Z,3.60
2022-08-18T00:12:39.915Z,2.20
2022-08-18T00:13:40.134Z,2.90
2022-08-18T00:14:39.947Z,2.10
2022-08-18T00:15:45.788Z,2.30
2022-08-18T00:16:39.973Z,2.50
2022-08-18T00:17:39.989Z,2.80
2022-08-18T00:18:40.005Z,2.80
2022-08-18T00:19:46.923Z,2.30
2022-08-18T00:20:40.034Z,2.20
2022-08-18T00:21:40.048Z,3.30
2022-08-18T00:22:40.062Z,2.00
2022-08-18T00:23:40.080Z,2.60
2022-08-18T00:24:40.295Z,2.30
2022-08-18T00:25:40.107Z,2.40
2022-08-18T00:26:40.124Z,2.10
2022-08-18T00:27:40.137Z,2.00
2022-08-18T00:28:40.151Z,2.60
2022-08-18T00:29:40.165Z,2.10
2022-08-18T00:30:40.182Z,2.30
2022-08-18T00:31:40.399Z,3.20
2022-08-18T00:32:40.209Z,2.60
2022-08-18T00:33:40.224Z,1.90
2022-08-18T00:34:40.238Z,2.50
2022-08-18T00:35:40.256Z,2.00
2022-08-18T00:36:40.267Z,2.50
2022-08-18T00:37:40.283Z,3.30
2022-08-18T00:38:40.296Z,1.90
2022-08-18T00:39:46.203Z,2.20
2022-08-18T00:40:40.327Z,2.00
2022-08-18T00:41:40.342Z,2.30
2022-08-18T00:42:40.356Z,2.20
2022-08-18T00:43:40.372Z,2.10
2022-08-18T00:44:40.385Z,3.00
2022-08-18T00:45:40.400Z,2.90
2022-08-18T00:46:40.414Z,2.30
2022-08-18T00:47:43.099Z,2.20
2022-08-18T00:48:40.442Z,2.20
2022-08-18T00:49:40.457Z,3.10
2022-08-18T00:50:40.472Z,2.10
2022-08-18T00:51:40.488Z,2.80
2022-08-18T00:52:40.502Z,2.40
2022-08-18T00:53:40.516Z,2.70
2022-08-18T00:54:40.531Z,1.90
2022-08-18T00:55:43.778Z,2.20
2022-08-18T00:56:40.563Z,1.80
2022-08-18T00:57:40.576Z,2.00
2022-08-18T00:58:40.590Z,2.30
2022-08-18T00:59:40.604Z,2.40
2022-08-18T01:00:40.642Z,2.50
2022-08-18T01:01:40.634Z,2.00
2022-08-18T01:02:40.650Z,2.20
2022-08-18T01:03:40.665Z,3.80
2022-08-18T01:04:42.209Z,2.10
2022-08-18T01:05:40.694Z,1.70
2022-08-18T01:06:40.710Z,2.00
2022-08-18T01:07:40.723Z,1.70
2022-08-18T01:08:40.984Z,2.00
2022-08-18T01:09:40.749Z,1.90
2022-08-18T01:10:40.765Z,2.30
2022-08-18T01:11:40.781Z,2.60
2022-08-18T01:12:45.673Z,2.00
2022-08-18T01:13:40.809Z,2.40
2022-08-18T01:14:40.822Z,2.40
2022-08-18T01:15:40.839Z,2.80
2022-08-18T01:16:40.854Z,2.00
2022-08-18T01:17:40.867Z,2.00
2022-08-18T01:18:40.883Z,1.80
2022-08-18T01:19:40.895Z,2.40
2022-08-18T01:20:40.912Z,2.60
2022-08-18T01:21:40.926Z,2.50
2022-08-18T01:22:40.939Z,1.80
2022-08-18T01:23:40.954Z,2.50
2022-08-18T01:24:40.968Z,1.80
2022-08-18T01:25:40.984Z,2.30
2022-08-18T01:26:44.127Z,2.30
2022-08-18T01:27:41.014Z,2.60
2022-08-18T01:28:41.025Z,2.60
2022-08-18T01:29:43.520Z,2.10
2022-08-18T01:30:41.060Z,2.20
2022-08-18T01:31:54.383Z,1.80
2022-08-18T01:32:41.084Z,1.90
2022-08-18T01:33:41.174Z,2.00
2022-08-18T01:34:41.116Z,1.80
2022-08-18T01:35:41.894Z,1.90
2022-08-18T01:36:41.144Z,2.10
2022-08-18T01:37:41.158Z,2.00
2022-08-18T01:38:41.174Z,1.80
2022-08-18T01:41:21.763Z,2.30
2022-08-18T01:41:22.005Z,2.00
2022-08-18T01:41:41.265Z,4.00
2022-08-18T01:42:41.229Z,2.50
2022-08-18T01:43:41.449Z,2.00
2022-08-18T01:44:41.259Z,2.30
2022-08-18T01:45:41.475Z,2.90
2022-08-18T01:46:41.286Z,2.20
2022-08-18T01:47:47.941Z,2.40
2022-08-18T01:48:41.318Z,2.10
2022-08-18T01:49:41.330Z,2.00
2022-08-18T01:50:41.354Z,2.00
2022-08-18T01:51:41.363Z,2.20
2022-08-18T01:52:41.375Z,1.90
2022-08-18T01:53:41.389Z,2.30
2022-08-18T01:54:41.405Z,2.80
2022-08-18T01:55:41.423Z,2.30
2022-08-18T01:56:41.433Z,2.10
2022-08-18T01:57:41.447Z,2.00
2022-08-18T01:58:41.462Z,2.30
2022-08-18T01:59:41.477Z,2.10
2022-08-18T02:00:41.491Z,2.90
2022-08-18T02:01:50.484Z,2.20
2022-08-18T02:02:41.521Z,2.20
2022-08-18T02:03:41.536Z,2.00
2022-08-18T02:04:41.573Z,2.40
2022-08-18T02:05:41.562Z,2.90
2022-08-18T02:06:42.351Z,2.30
2022-08-18T02:07:42.621Z,2.00
2022-08-18T02:08:43.644Z,2.80
2022-08-18T02:09:41.621Z,3.20
2022-08-18T02:10:41.635Z,3.10
2022-08-18T02:11:41.649Z,2.60
2022-08-18T02:12:41.666Z,3.10
2022-08-18T02:13:41.678Z,2.60
2022-08-18T02:14:41.694Z,2.50
2022-08-18T02:15:42.019Z,2.70
2022-08-18T02:16:41.722Z,2.50
2022-08-18T02:17:41.737Z,2.80
2022-08-18T02:18:48.448Z,2.70
2022-08-18T02:19:41.768Z,2.80
2022-08-18T02:20:44.325Z,2.90
2022-08-18T02:21:41.797Z,2.90
2022-08-18T02:22:41.813Z,3.00
2022-08-18T02:23:41.825Z,2.60
2022-08-18T02:24:41.838Z,3.40
2022-08-18T02:25:41.855Z,2.60
2022-08-18T02:26:41.866Z,3.00
2022-08-18T02:27:41.893Z,3.00
2022-08-18T02:28:41.895Z,3.80
2022-08-18T02:29:41.911Z,2.90
2022-08-18T02:30:41.925Z,2.90
2022-08-18T02:31:41.939Z,3.20
2022-08-18T02:32:41.954Z,2.80
2022-08-18T02:33:41.970Z,3.10
2022-08-18T02:34:41.982Z,3.20
2022-08-18T02:35:41.997Z,3.40
2022-08-18T02:36:42.013Z,2.70
2022-08-18T02:37:42.298Z,3.00
2022-08-18T02:38:42.039Z,3.10
2022-08-18T02:39:42.157Z,3.20
2022-08-18T02:40:42.068Z,3.60
2022-08-18T02:41:42.089Z,3.00
2022-08-18T02:42:42.097Z,3.60
2022-08-18T02:43:42.119Z,3.40
2022-08-18T02:44:42.126Z,2.90
2022-08-18T02:45:42.142Z,3.20
2022-08-18T02:46:42.158Z,3.10
2022-08-18T02:47:43.010Z,3.50
2022-08-18T02:48:42.185Z,3.30
2022-08-18T02:49:42.198Z,3.70
2022-08-18T02:50:42.213Z,4.00
2022-08-18T02:51:42.227Z,3.10
2022-08-18T02:52:42.269Z,3.80
2022-08-18T02:53:42.258Z,3.60
2022-08-18T02:54:42.271Z,3.60
2022-08-18T02:55:42.288Z,3.60
2022-08-18T02:56:42.685Z,3.90
2022-08-18T02:57:42.314Z,4.60
2022-08-18T02:58:42.329Z,3.60
2022-08-18T02:59:42.343Z,4.40
2022-08-18T03:00:42.357Z,3.90
2022-08-18T03:01:42.471Z,4.20
2022-08-18T03:02:42.386Z,4.90
2022-08-18T03:03:42.402Z,3.80
2022-08-18T03:04:42.414Z,4.40
2022-08-18T03:05:42.429Z,4.60
2022-08-18T03:06:42.444Z,4.60
2022-08-18T03:07:42.460Z,3.20
2022-08-18T03:08:42.473Z,4.40
2022-08-18T03:09:42.485Z,3.90
2022-08-18T03:10:42.502Z,4.30
2022-08-18T03:11:43.506Z,4.50
2022-08-18T03:12:42.530Z,4.10
2022-08-18T03:13:42.544Z,3.90
2022-08-18T03:14:42.559Z,4.70
2022-08-18T03:15:42.574Z,5.00
2022-08-18T03:16:53.222Z,5.30
2022-08-18T03:17:42.603Z,4.50
2022-08-18T03:18:42.616Z,5.30
2022-08-18T03:19:42.636Z,6.00
2022-08-18T03:20:42.646Z,4.20
2022-08-18T03:21:42.660Z,4.40
2022-08-18T03:22:42.675Z,4.30
2022-08-18T03:23:42.710Z,4.60
2022-08-18T03:24:42.704Z,5.20
2022-08-18T03:25:42.715Z,4.40
2022-08-18T03:26:42.732Z,4.70
2022-08-18T03:27:42.746Z,4.90
2022-08-18T03:28:42.762Z,4.60
2022-08-18T03:29:42.775Z,4.80
2022-08-18T03:30:42.789Z,4.40
2022-08-18T03:31:42.811Z,5.20
2022-08-18T03:32:45.703Z,3.90
2022-08-18T03:33:42.832Z,5.00
2022-08-18T03:34:42.846Z,4.40
2022-08-18T03:35:42.860Z,4.60
2022-08-18T03:36:42.875Z,4.20
2022-08-18T03:37:42.889Z,4.20
2022-08-18T03:38:42.904Z,5.30
2022-08-18T03:39:43.096Z,4.70
2022-08-18T03:40:42.933Z,4.20
2022-08-18T03:41:59.090Z,5.10
2022-08-18T03:42:42.963Z,4.80
2022-08-18T03:43:50.601Z,6.50
2022-08-18T03:44:42.990Z,5.10
2022-08-18T03:45:43.004Z,4.80
2022-08-18T03:46:43.023Z,5.00
2022-08-18T03:47:43.034Z,4.70
2022-08-18T03:48:43.045Z,5.40
2022-08-18T03:49:43.061Z,5.60
2022-08-18T03:50:43.076Z,6.60
2022-08-18T03:51:43.092Z,4.50
2022-08-18T03:52:43.109Z,4.90
2022-08-18T03:53:43.121Z,5.70
2022-08-18T03:54:43.134Z,6.50
2022-08-18T03:55:43.149Z,4.90
2022-08-18T03:56:43.162Z,6.60
2022-08-18T03:57:43.176Z,5.20
2022-08-18T03:58:43.192Z,5.30
2022-08-18T03:59:43.206Z,5.20
2022-08-18T04:00:43.221Z,5.80
2022-08-18T04:01:43.270Z,5.30
2022-08-18T04:02:43.250Z,6.10
2022-08-18T04:03:43.264Z,7.20
2022-08-18T04:04:43.442Z,5.10
2022-08-18T04:05:43.293Z,7.10
2022-08-18T04:06:43.308Z,6.40
2022-08-18T04:07:43.319Z,4.70
2022-08-18T04:08:43.336Z,5.00
2022-08-18T04:09:43.354Z,5.60
2022-08-18T04:10:43.362Z,6.60
2022-08-18T04:11:43.392Z,6.60
2022-08-18T04:12:43.393Z,5.50
2022-08-18T04:13:43.406Z,5.80
2022-08-18T04:14:43.421Z,5.50
2022-08-18T04:15:43.436Z,5.50
2022-08-18T04:16:43.449Z,6.70
2022-08-18T04:18:03.014Z,5.30
2022-08-18T04:18:43.477Z,6.00
2022-08-18T04:19:43.492Z,7.00
2022-08-18T04:20:57.704Z,5.40
2022-08-18T04:21:43.522Z,5.60
2022-08-18T04:22:43.535Z,5.90
2022-08-18T04:23:44.367Z,7.00
2022-08-18T04:24:43.561Z,6.00
2022-08-18T04:25:43.577Z,5.60
2022-08-18T04:26:43.592Z,7.10
2022-08-18T04:27:43.607Z,6.00
2022-08-18T04:28:43.621Z,6.20
2022-08-18T04:29:43.633Z,4.80
2022-08-18T04:30:43.651Z,6.60
2022-08-18T04:31:43.664Z,5.80
2022-08-18T04:32:43.677Z,4.90
2022-08-18T04:33:43.692Z,5.80
2022-08-18T04:34:43.706Z,6.20
2022-08-18T04:35:43.720Z,5.50
2022-08-18T04:36:43.736Z,4.80
2022-08-18T04:37:43.749Z,6.10
2022-08-18T04:38:43.803Z,5.80
2022-08-18T04:39:43.874Z,6.00
2022-08-18T04:40:43.793Z,5.70
2022-08-18T04:41:43.965Z,5.80
2022-08-18T04:42:43.821Z,5.90
2022-08-18T04:43:43.837Z,6.70
2022-08-18T04:44:43.850Z,4.50
2022-08-18T04:45:43.864Z,6.80
2022-08-18T04:46:43.879Z,5.30
2022-08-18T04:47:43.899Z,5.30
2022-08-18T04:48:43.911Z,6.50
2022-08-18T04:49:43.921Z,6.60
2022-08-18T04:50:43.936Z,5.20
2022-08-18T04:52:36.865Z,5.60
2022-08-18T04:52:43.963Z,7.20
2022-08-18T04:53:43.979Z,5.80
2022-08-18T04:54:43.992Z,6.20
2022-08-18T04:55:44.005Z,6.80
2022-08-18T04:56:44.026Z,6.00
2022-08-18T04:57:44.035Z,8.00
2022-08-18T04:58:44.049Z,6.40
2022-08-18T04:59:44.064Z,5.30
2022-08-18T05:00:44.077Z,5.30
2022-08-18T05:01:44.174Z,6.70
2022-08-18T05:02:44.106Z,6.90
2022-08-18T05:03:50.020Z,6.80
2022-08-18T05:04:44.133Z,5.50
2022-08-18T05:05:44.149Z,6.70
2022-08-18T05:06:44.161Z,6.10
2022-08-18T05:07:44.179Z,6.70
2022-08-18T05:08:44.190Z,6.60
2022-08-18T05:09:44.204Z,7.10
2022-08-18T05:10:44.222Z,6.50
2022-08-18T05:11:44.238Z,5.60
2022-08-18T05:12:44.250Z,6.00
2022-08-18T05:13:44.262Z,6.60
2022-08-18T05:14:44.276Z,6.60
2022-08-18T05:16:08.960Z,5.50
2022-08-18T05:16:48.502Z,7.00
2022-08-18T05:17:44.320Z,6.60
2022-08-18T05:18:44.337Z,6.40
2022-08-18T05:19:44.576Z,6.50
2022-08-18T05:20:44.363Z,7.40
2022-08-18T05:21:44.377Z,7.00
2022-08-18T05:22:44.391Z,6.80
2022-08-18T05:23:44.405Z,7.20
2022-08-18T05:24:44.419Z,6.10
2022-08-18T05:25:44.434Z,6.20
2022-08-18T05:26:44.449Z,5.20
2022-08-18T05:27:44.462Z,7.90
2022-08-18T05:28:44.478Z,7.00
2022-08-18T05:29:46.044Z,5.80
2022-08-18T05:30:44.506Z,6.50
2022-08-18T05:31:44.520Z,6.00
2022-08-18T05:32:49.236Z,6.50
2022-08-18T05:33:44.546Z,7.40
2022-08-18T05:34:44.560Z,6.80
2022-08-18T05:35:44.577Z,5.90
2022-08-18T05:36:44.590Z,6.80
2022-08-18T05:37:44.603Z,6.10
2022-08-18T05:38:44.619Z,6.70
2022-08-18T05:39:44.655Z,6.50
2022-08-18T05:40:44.646Z,6.50
2022-08-18T05:41:44.663Z,7.30
2022-08-18T05:42:44.674Z,8.00
2022-08-18T05:43:51.764Z,7.50
2022-08-18T05:44:44.702Z,7.10
2022-08-18T05:45:44.719Z,6.70
2022-08-18T05:46:44.731Z,8.20
2022-08-18T05:47:44.751Z,6.10
2022-08-18T05:48:44.761Z,6.10
2022-08-18T05:49:44.774Z,6.10
2022-08-18T05:50:44.789Z,6.50
2022-08-18T05:51:44.804Z,6.40
2022-08-18T05:52:44.818Z,6.30
2022-08-18T05:53:44.831Z,6.50
2022-08-18T05:54:44.847Z,7.00
2022-08-18T05:55:47.883Z,7.10
2022-08-18T05:56:44.875Z,7.50
2022-08-18T05:57:44.935Z,6.20
2022-08-18T05:58:44.901Z,6.90
2022-08-18T05:59:44.915Z,7.10
2022-08-18T06:00:44.931Z,5.40
2022-08-18T06:01:44.945Z,6.40
2022-08-18T06:02:44.974Z,6.60
2022-08-18T06:03:46.646Z,6.70
2022-08-18T06:04:44.985Z,7.70
2022-08-18T06:05:45.001Z,6.80
2022-08-18T06:06:47.607Z,7.20
2022-08-18T06:07:45.079Z,6.20
2022-08-18T06:08:45.042Z,6.70
2022-08-18T06:09:45.057Z,7.20
2022-08-18T06:10:45.073Z,6.90
2022-08-18T06:11:45.085Z,6.70
2022-08-18T06:12:47.070Z,7.20
2022-08-18T06:13:45.117Z,6.80
2022-08-18T06:14:45.128Z,8.20
2022-08-18T06:15:45.151Z,7.30
2022-08-18T06:16:45.325Z,6.40
2022-08-18T06:17:46.748Z,6.70
2022-08-18T06:18:45.185Z,7.20
2022-08-18T06:19:45.198Z,6.90
2022-08-18T06:20:45.215Z,7.20
2022-08-18T06:21:45.226Z,7.00
2022-08-18T06:22:52.728Z,7.40
2022-08-18T06:23:45.254Z,6.70
2022-08-18T06:24:45.269Z,6.80
2022-08-18T06:25:45.283Z,6.30
2022-08-18T06:26:45.298Z,6.80
2022-08-18T06:27:45.411Z,7.50
2022-08-18T06:28:45.326Z,8.10
2022-08-18T06:29:45.341Z,6.50
2022-08-18T06:30:45.354Z,6.80
2022-08-18T06:31:45.370Z,7.60
2022-08-18T06:32:45.402Z,7.30
2022-08-18T06:33:45.963Z,6.50
2022-08-18T06:34:45.413Z,7.60
2022-08-18T06:35:45.425Z,7.30
2022-08-18T06:36:45.440Z,7.10
2022-08-18T06:37:45.503Z,6.30
2022-08-18T06:38:46.008Z,6.40
2022-08-18T06:39:45.560Z,8.60
2022-08-18T06:40:45.497Z,6.90
2022-08-18T06:41:45.510Z,6.70
2022-08-18T06:42:45.526Z,7.40
2022-08-18T06:43:45.538Z,7.90
2022-08-18T06:44:45.551Z,8.60
2022-08-18T06:45:45.564Z,7.60
2022-08-18T06:46:45.581Z,6.80
2022-08-18T06:47:45.665Z,7.20
2022-08-18T06:48:45.607Z,6.80
2022-08-18T06:49:45.622Z,6.70
2022-08-18T06:50:45.638Z,7.40
2022-08-18T06:51:45.652Z,6.30
2022-08-18T06:52:45.665Z,6.80
2022-08-18T06:53:45.680Z,7.00
2022-08-18T06:54:47.784Z,9.40
2022-08-18T06:55:45.705Z,8.10
2022-08-18T06:56:45.720Z,7.40
2022-08-18T06:57:45.774Z,7.90
2022-08-18T06:58:50.000Z,7.60
2022-08-18T06:59:45.766Z,6.10
2022-08-18T07:00:45.810Z,8.50
2022-08-18T07:01:45.790Z,9.20
2022-08-18T07:02:45.808Z,6.10
2022-08-18T07:03:45.823Z,7.40
2022-08-18T07:04:45.833Z,7.50
2022-08-18T07:05:45.849Z,7.20
2022-08-18T07:06:45.859Z,7.60
2022-08-18T07:07:45.881Z,8.60
2022-08-18T07:08:45.894Z,7.70
2022-08-18T07:09:45.909Z,6.00
2022-08-18T07:10:45.924Z,8.00
2022-08-18T07:11:45.931Z,6.90
2022-08-18T07:12:45.973Z,7.60
2022-08-18T07:13:45.958Z,6.40
2022-08-18T07:14:45.974Z,7.20
2022-08-18T07:15:45.987Z,7.30
2022-08-18T07:17:01.274Z,8.90
2022-08-18T07:17:46.015Z,8.10
2022-08-18T07:18:46.036Z,8.50
2022-08-18T07:19:46.046Z,7.40
2022-08-18T07:20:46.058Z,7.50
2022-08-18T07:21:46.071Z,7.10
2022-08-18T07:22:46.085Z,6.70
2022-08-18T07:23:57.543Z,7.30
2022-08-18T07:24:46.112Z,8.30
2022-08-18T07:25:46.129Z,8.40
2022-08-18T07:26:46.141Z,6.60
2022-08-18T07:27:46.247Z,8.00
2022-08-18T07:28:46.169Z,6.70
2022-08-18T07:29:46.183Z,7.80
2022-08-18T07:31:06.361Z,8.40
2022-08-18T07:31:46.212Z,8.30
2022-08-18T07:32:46.229Z,7.00
2022-08-18T07:33:46.239Z,7.50
2022-08-18T07:34:47.912Z,7.10
2022-08-18T07:35:46.267Z,9.20
2022-08-18T07:36:46.281Z,7.60
2022-08-18T07:37:46.364Z,8.40
2022-08-18T07:38:46.310Z,7.40
2022-08-18T07:39:48.504Z,6.30
2022-08-18T07:40:46.336Z,7.20
2022-08-18T07:41:46.350Z,8.60
2022-08-18T07:42:53.898Z,9.60
2022-08-18T07:43:46.381Z,8.30
2022-08-18T07:44:46.393Z,7.40
2022-08-18T07:45:46.417Z,7.90
2022-08-18T07:46:46.422Z,8.00
2022-08-18T07:47:46.438Z,7.40
2022-08-18T07:48:46.451Z,8.10
2022-08-18T07:50:15.761Z,6.80
2022-08-18T07:50:58.194Z,7.30
2022-08-18T07:51:46.491Z,7.70
2022-08-18T07:52:46.888Z,8.10
2022-08-18T07:53:55.779Z,8.20
2022-08-18T07:54:49.900Z,7.00
2022-08-18T07:55:46.548Z,8.40
2022-08-18T07:56:46.560Z,9.60
2022-08-18T07:57:46.576Z,9.50
2022-08-18T07:58:46.589Z,7.20
2022-08-18T07:59:46.606Z,6.90
2022-08-18T08:00:58.560Z,7.50
2022-08-18T08:01:46.662Z,8.40
2022-08-18T08:02:50.050Z,7.40
2022-08-18T08:03:46.659Z,7.30
2022-08-18T08:04:46.673Z,8.30
2022-08-18T08:05:46.688Z,8.90
2022-08-18T08:07:12.891Z,7.80
2022-08-18T08:07:46.716Z,7.20
2022-08-18T08:08:46.729Z,8.20
2022-08-18T08:09:51.634Z,8.40
2022-08-18T08:10:46.757Z,7.10
2022-08-18T08:11:46.771Z,8.70
2022-08-18T08:12:46.785Z,9.40
2022-08-18T08:13:56.015Z,8.80
2022-08-18T08:14:46.814Z,8.80
2022-08-18T08:15:46.828Z,7.50
2022-08-18T08:16:46.840Z,7.00
2022-08-18T08:17:46.877Z,8.90
2022-08-18T08:18:46.868Z,8.10
2022-08-18T08:20:02.341Z,9.20
2022-08-18T08:20:46.895Z,7.80
2022-08-18T08:21:52.917Z,7.80
2022-08-18T08:22:46.925Z,7.00
2022-08-18T08:23:46.943Z,8.80
2022-08-18T08:24:46.951Z,6.50
2022-08-18T08:25:47.725Z,7.50
2022-08-18T08:26:47.634Z,7.80
2022-08-18T08:27:46.994Z,8.20
2022-08-18T08:28:47.009Z,6.70
2022-08-18T08:29:47.023Z,8.30
2022-08-18T08:30:47.036Z,9.50
2022-08-18T08:31:47.065Z,8.10
2022-08-18T08:32:47.062Z,6.70
2022-08-18T08:33:47.076Z,7.10
2022-08-18T08:34:47.091Z,7.90
2022-08-18T08:35:49.426Z,7.00
2022-08-18T08:36:47.118Z,7.80
2022-08-18T08:37:47.201Z,8.60
2022-08-18T08:38:47.147Z,8.70
2022-08-18T08:39:47.238Z,7.90
2022-08-18T08:40:47.176Z,7.00
2022-08-18T08:41:47.188Z,8.60
2022-08-18T08:42:47.202Z,6.50
2022-08-18T08:43:47.217Z,8.50
2022-08-18T08:44:58.780Z,8.60
2022-08-18T08:45:47.243Z,8.10
2022-08-18T08:46:47.266Z,8.30
2022-08-18T08:47:47.278Z,7.80
2022-08-18T08:48:47.286Z,8.50
2022-08-18T08:49:47.300Z,7.60
2022-08-18T08:50:47.314Z,7.80
2022-08-18T08:51:47.328Z,7.70
2022-08-18T08:52:47.351Z,7.30
2022-08-18T08:53:47.357Z,9.10
2022-08-18T08:54:47.370Z,6.90
2022-08-18T08:55:47.382Z,8.60
2022-08-18T08:56:47.395Z,8.00
2022-08-18T08:57:47.409Z,7.60
2022-08-18T08:58:47.423Z,7.70
2022-08-18T08:59:47.442Z,7.60
2022-08-18T09:00:47.453Z,8.00
2022-08-18T09:01:47.585Z,7.10
2022-08-18T09:02:48.686Z,7.90
2022-08-18T09:03:47.494Z,7.70
2022-08-18T09:05:07.610Z,7.80
2022-08-18T09:05:47.525Z,8.00
2022-08-18T09:06:47.537Z,8.30
2022-08-18T09:07:47.549Z,8.90
2022-08-18T09:08:47.564Z,9.80
2022-08-18T09:09:47.578Z,8.50
2022-08-18T09:10:47.596Z,8.50
2022-08-18T09:11:47.606Z,8.00
2022-08-18T09:12:47.709Z,7.80
2022-08-18T09:13:47.634Z,8.70
2022-08-18T09:14:47.646Z,6.70
2022-08-18T09:15:47.661Z,8.90
2022-08-18T09:16:48.008Z,8.10
2022-08-18T09:17:47.690Z,7.70
2022-08-18T09:18:47.702Z,8.10
2022-08-18T09:19:47.719Z,9.30
2022-08-18T09:20:49.435Z,7.90
2022-08-18T09:21:47.742Z,7.10
2022-08-18T09:22:47.871Z,9.10
2022-08-18T09:23:47.772Z,8.10
2022-08-18T09:24:47.788Z,8.40
2022-08-18T09:25:47.799Z,7.90
2022-08-18T09:26:47.813Z,8.50
2022-08-18T09:28:09.972Z,8.90
2022-08-18T09:28:47.841Z,8.10
2022-08-18T09:29:47.856Z,8.30
2022-08-18T09:30:49.285Z,10.00
2022-08-18T09:31:47.883Z,8.80
2022-08-18T09:32:49.358Z,9.80
2022-08-18T09:33:47.911Z,9.10
2022-08-18T09:34:47.924Z,9.50
2022-08-18T09:35:52.106Z,8.90
2022-08-18T09:36:47.951Z,9.60
2022-08-18T09:38:47.979Z,9.50
2022-08-18T09:39:53.917Z,10.50
2022-08-18T09:41:03.476Z,9.00
2022-08-18T09:41:49.053Z,8.90
2022-08-18T09:42:48.351Z,10.00
2022-08-18T09:43:48.049Z,8.80
2022-08-18T09:44:48.064Z,8.90
2022-08-18T09:45:48.075Z,9.00
2022-08-18T09:46:48.089Z,8.40
2022-08-18T09:47:48.138Z,8.00
2022-08-18T09:48:48.117Z,8.70
2022-08-18T09:49:51.269Z,10.30
2022-08-18T09:50:48.145Z,9.30
2022-08-18T09:51:48.971Z,9.00
2022-08-18T09:52:48.174Z,9.50
2022-08-18T09:53:48.188Z,8.10
2022-08-18T09:54:48.199Z,8.60
2022-08-18T09:55:52.064Z,8.60
2022-08-18T09:57:48.242Z,9.00
2022-08-18T09:58:48.256Z,9.80
2022-08-18T09:59:49.257Z,8.30
2022-08-18T10:00:48.292Z,9.40
2022-08-18T10:01:52.614Z,8.60
2022-08-18T10:02:48.836Z,9.10
2022-08-18T10:03:48.327Z,8.50
2022-08-18T10:04:48.339Z,8.20
2022-08-18T10:05:48.351Z,8.90
2022-08-18T10:06:49.041Z,8.20
2022-08-18T10:07:48.381Z,9.40
2022-08-18T10:08:48.392Z,9.50
2022-08-18T10:09:48.409Z,9.60
2022-08-18T10:11:00.922Z,10.20
2022-08-18T10:11:48.436Z,8.80
2022-08-18T10:12:48.509Z,7.70
2022-08-18T10:13:49.573Z,9.70
2022-08-18T10:14:48.477Z,8.00
2022-08-18T10:15:48.535Z,9.30
2022-08-18T10:17:16.016Z,8.70
2022-08-18T10:17:49.972Z,8.80
2022-08-18T10:18:48.531Z,10.10
2022-08-18T10:19:48.547Z,9.60
2022-08-18T10:20:48.561Z,9.50
2022-08-18T10:21:48.575Z,9.90
2022-08-18T10:22:48.673Z,8.50
2022-08-18T10:23:58.174Z,8.30
2022-08-18T10:24:48.615Z,8.80
2022-08-18T10:25:48.685Z,8.80
2022-08-18T10:26:54.085Z,9.30
2022-08-18T10:27:49.146Z,10.40
2022-08-18T10:28:48.670Z,10.00
2022-08-18T10:29:48.684Z,9.10
2022-08-18T10:30:57.312Z,8.80
2022-08-18T10:31:48.712Z,8.60
2022-08-18T10:32:54.034Z,8.70
2022-08-18T10:33:48.738Z,8.20
2022-08-18T10:34:51.914Z,9.80
2022-08-18T10:35:48.840Z,7.60
2022-08-18T10:36:48.786Z,10.10
2022-08-18T10:37:49.148Z,8.00
2022-08-18T10:38:49.159Z,8.30
2022-08-18T10:39:50.067Z,8.70
2022-08-18T10:40:48.844Z,7.90
2022-08-18T10:41:48.848Z,8.20
2022-08-18T10:42:48.993Z,9.40
2022-08-18T10:43:55.555Z,8.40
2022-08-18T10:44:48.891Z,7.50
2022-08-18T10:46:23.105Z,7.60
2022-08-18T10:46:49.131Z,7.60
2022-08-18T10:47:48.982Z,9.50
2022-08-18T10:48:48.947Z,9.70
2022-08-18T10:49:49.240Z,7.40
2022-08-18T10:50:48.972Z,9.80
2022-08-18T10:52:54.428Z,9.80
2022-08-18T10:53:49.482Z,9.00
2022-08-18T10:54:51.956Z,9.10
2022-08-18T10:55:50.116Z,9.40
2022-08-18T10:56:49.056Z,7.10
2022-08-18T10:57:49.070Z,9.70
2022-08-18T10:58:49.288Z,10.40
2022-08-18T10:59:54.536Z,8.90
2022-08-18T11:00:49.111Z,8.30
2022-08-18T11:01:49.128Z,11.80
2022-08-18T11:02:49.143Z,9.40
2022-08-18T11:03:51.580Z,8.40
2022-08-18T11:04:59.127Z,8.80
2022-08-18T11:05:49.189Z,10.10
2022-08-18T11:06:49.195Z,9.00
2022-08-18T11:07:53.400Z,9.80
2022-08-18T11:08:49.288Z,9.00
2022-08-18T11:09:57.069Z,11.70
2022-08-18T11:11:53.445Z,9.70
2022-08-18T11:12:50.169Z,8.60
2022-08-18T11:13:49.290Z,10.50
2022-08-18T11:14:49.950Z,8.40
2022-08-18T11:15:50.423Z,8.90
2022-08-18T11:16:49.332Z,8.30
2022-08-18T11:17:49.772Z,10.10
2022-08-18T11:18:49.691Z,8.00
2022-08-18T11:19:50.773Z,9.40
2022-08-18T11:20:49.396Z,9.00
2022-08-18T11:21:51.193Z,8.70
2022-08-18T11:22:49.524Z,8.10
2022-08-18T11:23:50.437Z,9.70
2022-08-18T11:24:49.448Z,9.50
2022-08-18T11:25:49.702Z,9.10
2022-08-18T11:26:52.371Z,7.70
2022-08-18T11:27:49.489Z,8.40
2022-08-18T11:28:49.497Z,8.10
2022-08-18T11:29:49.512Z,9.50
2022-08-18T11:30:49.526Z,9.20
2022-08-18T11:31:52.648Z,9.70
2022-08-18T11:32:52.276Z,8.40
2022-08-18T11:33:51.367Z,7.70
2022-08-18T11:34:52.899Z,7.90
2022-08-18T11:35:49.594Z,7.90
2022-08-18T11:36:50.165Z,10.20
2022-08-18T11:37:53.317Z,9.00
2022-08-18T11:38:49.633Z,10.10
2022-08-18T11:39:49.766Z,8.40
2022-08-18T11:41:50.265Z,9.30
2022-08-18T11:42:49.953Z,9.30
2022-08-18T11:43:50.769Z,9.20
2022-08-18T11:44:49.726Z,8.10
2022-08-18T11:45:49.732Z,8.70
2022-08-18T11:47:49.961Z,8.30
2022-08-18T11:49:49.786Z,8.70
2022-08-18T11:50:54.741Z,8.80
2022-08-18T11:51:49.812Z,8.90
2022-08-18T11:52:53.764Z,8.80
2022-08-18T11:53:55.598Z,9.00
2022-08-18T11:54:50.745Z,8.20
2022-08-18T11:55:53.347Z,7.80
2022-08-18T11:56:49.884Z,8.50
2022-08-18T11:57:49.899Z,8.00
2022-08-18T11:58:50.570Z,7.80
2022-08-18T11:59:55.141Z,10.80
2022-08-18T12:00:49.937Z,9.60
2022-08-18T12:02:50.169Z,9.50
2022-08-18T12:03:49.979Z,8.30
2022-08-18T12:04:50.481Z,8.70
2022-08-18T12:06:50.023Z,8.00
2022-08-18T12:10:51.088Z,9.10
2022-08-18T12:11:50.091Z,9.00
2022-08-18T12:12:51.833Z,8.40
2022-08-18T12:13:50.124Z,7.20
2022-08-18T12:14:50.130Z,7.50
2022-08-18T12:15:50.348Z,9.70
2022-08-18T12:16:50.884Z,7.70
2022-08-18T12:17:52.950Z,8.10
2022-08-18T12:18:50.188Z,7.90
2022-08-18T12:19:50.203Z,9.00
2022-08-18T12:20:51.205Z,7.30
2022-08-18T12:21:50.228Z,7.70
2022-08-18T12:22:50.244Z,6.90
2022-08-18T12:23:52.398Z,9.10
2022-08-18T12:24:50.269Z,7.40
2022-08-18T12:25:51.745Z,9.10
2022-08-18T12:26:50.296Z,7.10
2022-08-18T12:27:50.310Z,8.00
2022-08-18T12:28:50.325Z,9.20
2022-08-18T12:29:50.532Z,7.30
2022-08-18T12:30:56.541Z,9.80
2022-08-18T12:31:50.367Z,6.80
2022-08-18T12:33:05.293Z,7.40
2022-08-18T12:34:00.906Z,8.00
2022-08-18T12:34:50.409Z,7.20
2022-08-18T12:35:50.421Z,8.70
2022-08-18T12:36:50.439Z,6.90
2022-08-18T12:38:00.493Z,8.60
2022-08-18T12:38:52.148Z,8.00
2022-08-18T12:39:50.734Z,8.80
2022-08-18T12:40:50.693Z,7.20
2022-08-18T12:41:50.502Z,6.70
2022-08-18T12:42:50.579Z,7.50
2022-08-18T12:43:58.983Z,8.50
2022-08-18T12:44:50.544Z,7.90
2022-08-18T12:45:50.562Z,7.60
2022-08-18T12:46:50.593Z,7.40
2022-08-18T12:47:50.589Z,7.20
2022-08-18T12:48:50.803Z,7.10
2022-08-18T12:49:50.761Z,6.70
2022-08-18T12:50:58.258Z,6.50
2022-08-18T12:51:50.748Z,7.30
2022-08-18T12:52:50.873Z,7.00
2022-08-18T12:53:59.151Z,7.90
2022-08-18T12:54:55.853Z,6.60
2022-08-18T12:55:50.900Z,7.20
2022-08-18T12:56:50.711Z,6.10
2022-08-18T12:57:52.346Z,7.30
2022-08-18T12:58:50.740Z,5.70
2022-08-18T12:59:50.756Z,7.30
2022-08-18T13:00:51.383Z,6.70
2022-08-18T13:01:50.985Z,7.20
2022-08-18T13:02:50.902Z,7.50
2022-08-18T13:04:10.579Z,6.40
2022-08-18T13:05:50.836Z,7.20
2022-08-18T13:06:59.261Z,7.00
2022-08-18T13:07:51.082Z,6.70
2022-08-18T13:08:51.071Z,7.80
2022-08-18T13:09:54.294Z,8.20
2022-08-18T13:10:51.370Z,6.70
2022-08-18T13:11:50.919Z,7.00
2022-08-18T13:12:51.946Z,5.80
2022-08-18T13:13:53.086Z,7.90
2022-08-18T13:14:51.488Z,6.80
2022-08-18T13:15:58.321Z,7.10
2022-08-18T13:16:54.009Z,6.60
2022-08-18T13:17:51.004Z,6.80
2022-08-18T13:18:51.018Z,7.60
2022-08-18T13:19:51.031Z,5.30
2022-08-18T13:20:51.325Z,6.60
2022-08-18T13:21:51.059Z,7.10
2022-08-18T13:22:51.093Z,5.70
2022-08-18T13:23:51.088Z,7.40
2022-08-18T13:24:51.100Z,6.80
2022-08-18T13:25:51.116Z,6.30
2022-08-18T13:26:51.727Z,6.30
2022-08-18T13:27:51.243Z,6.20
2022-08-18T13:28:57.989Z,6.50
2022-08-18T13:29:51.216Z,5.50
2022-08-18T13:30:51.189Z,6.00